createdAt,value
2023-01-08T00:00:59.393Z,99632.56
2023-01-08T00:03:26.980Z,99612.09
2023-01-08T00:05:54.506Z,99611.41
2023-01-08T00:08:23.366Z,99617.66
2023-01-08T00:10:54.882Z,99614.06
2023-01-08T00:13:22.322Z,99608.53
2023-01-08T00:15:49.906Z,99602.38
2023-01-08T00:18:17.455Z,99608.56
2023-01-08T00:20:45.209Z,99609.75
2023-01-08T00:23:12.810Z,99612.75
2023-01-08T00:25:41.697Z,99596.03
2023-01-08T00:28:09.395Z,99598.72
2023-01-08T00:30:37.060Z,99589.31
2023-01-08T00:33:04.933Z,99600.25
2023-01-08T00:35:32.437Z,99603.25
2023-01-08T00:37:59.933Z,99595.31
2023-01-08T00:40:27.403Z,99597.72
2023-01-08T00:42:56.292Z,99572.41
2023-01-08T00:45:23.855Z,99586.47
2023-01-08T00:47:51.412Z,99579.97
2023-01-08T00:50:18.895Z,99556.00
2023-01-08T00:52:46.427Z,99566.50
2023-01-08T00:55:13.894Z,99568.00
2023-01-08T00:57:41.588Z,99578.03
2023-01-08T01:00:12.581Z,99570.84
2023-01-08T01:02:40.537Z,99561.84
2023-01-08T01:05:08.981Z,99559.78
2023-01-08T01:07:36.489Z,99556.44
2023-01-08T01:10:04.237Z,99571.44
2023-01-08T01:12:31.728Z,99578.66
2023-01-08T01:14:59.281Z,99572.03
2023-01-08T01:17:28.117Z,99553.81
2023-01-08T01:19:55.726Z,99562.19
2023-01-08T01:22:23.264Z,99552.34
2023-01-08T01:24:50.758Z,99545.75
2023-01-08T01:27:18.227Z,99528.38
2023-01-08T01:29:45.702Z,99540.75
2023-01-08T01:32:13.212Z,99537.50
2023-01-08T01:34:42.073Z,99547.41
2023-01-08T01:37:10.187Z,99542.78
2023-01-08T01:39:37.643Z,99544.19
2023-01-08T01:42:05.178Z,99529.81
2023-01-08T01:44:34.674Z,99550.81
2023-01-08T01:47:02.295Z,99528.47
2023-01-08T01:49:29.826Z,99531.72
2023-01-08T01:52:00.966Z,99523.22
2023-01-08T01:54:28.568Z,99534.03
2023-01-08T01:56:56.071Z,99519.34
2023-01-08T01:59:23.614Z,99531.03
2023-01-08T02:01:51.428Z,99529.31
2023-01-08T02:04:19.079Z,99535.94
2023-01-08T02:06:47.574Z,99549.25
2023-01-08T02:09:19.176Z,99553.56
2023-01-08T02:11:47.903Z,99534.13
2023-01-08T02:14:18.201Z,99557.16
2023-01-08T02:16:47.493Z,99549.97
2023-01-08T02:19:21.197Z,99537.63
2023-01-08T02:21:52.697Z,99564.09
2023-01-08T02:24:25.379Z,99559.53
2023-01-08T02:26:54.519Z,99546.34
2023-01-08T02:29:22.896Z,99552.09
2023-01-08T02:31:50.436Z,99542.53
2023-01-08T02:34:17.990Z,99525.97
2023-01-08T02:36:45.825Z,99538.31
2023-01-08T02:39:18.038Z,99519.38
2023-01-08T02:41:58.378Z,99531.97
2023-01-08T02:44:27.915Z,99521.53
2023-01-08T02:46:55.452Z,99519.50
2023-01-08T02:49:23.003Z,99512.53
2023-01-08T02:51:50.965Z,99519.25
2023-01-08T02:54:19.487Z,99527.16
2023-01-08T02:56:47.943Z,99526.81
2023-01-08T02:59:16.842Z,99519.59
2023-01-08T03:01:45.216Z,99517.06
2023-01-08T03:04:15.033Z,99522.59
2023-01-08T03:06:42.607Z,99513.47
2023-01-08T03:09:10.155Z,99516.84
2023-01-08T03:11:39.187Z,99521.16
2023-01-08T03:14:08.563Z,99517.28
2023-01-08T03:16:38.147Z,99510.59
2023-01-08T03:19:07.419Z,99507.72
2023-01-08T03:21:35.043Z,99516.25
2023-01-08T03:24:02.625Z,99498.84
2023-01-08T03:26:30.172Z,99523.03
2023-01-08T03:28:57.624Z,99511.75
2023-01-08T03:31:25.988Z,99507.84
2023-01-08T03:33:54.863Z,99494.78
2023-01-08T03:36:22.982Z,99496.31
2023-01-08T03:38:51.427Z,99517.16
2023-01-08T03:41:20.168Z,99500.00
2023-01-08T03:43:47.725Z,99492.66
2023-01-08T03:46:16.524Z,99488.66
2023-01-08T03:48:44.168Z,99495.47
2023-01-08T03:51:13.067Z,99480.84
2023-01-08T03:53:40.536Z,99483.34
2023-01-08T03:56:08.413Z,99493.91
2023-01-08T03:58:35.915Z,99496.84
2023-01-08T04:01:03.761Z,99478.44
2023-01-08T04:03:31.496Z,99471.94
2023-01-08T04:06:00.479Z,99487.53
2023-01-08T04:08:29.516Z,99488.38
2023-01-08T04:10:57.219Z,99477.25
2023-01-08T04:13:24.938Z,99477.22
2023-01-08T04:15:52.984Z,99481.50
2023-01-08T04:18:20.687Z,99489.03
2023-01-08T04:20:48.952Z,99471.94
2023-01-08T04:23:16.725Z,99475.31
2023-01-08T04:25:45.817Z,99478.44
2023-01-08T04:28:13.531Z,99476.66
2023-01-08T04:30:41.252Z,99471.63
2023-01-08T04:33:09.075Z,99476.66
2023-01-08T04:35:36.894Z,99471.66
2023-01-08T04:38:04.614Z,99477.72
2023-01-08T04:40:34.042Z,99485.66
2023-01-08T04:43:03.083Z,99464.28
2023-01-08T04:45:30.793Z,99475.59
2023-01-08T04:47:59.254Z,99458.78
2023-01-08T04:50:28.149Z,99446.34
2023-01-08T04:52:55.974Z,99468.31
2023-01-08T04:55:23.678Z,99438.31
2023-01-08T04:57:51.349Z,99472.84
2023-01-08T05:00:20.547Z,99465.38
2023-01-08T05:02:48.319Z,99464.19
2023-01-08T05:05:16.104Z,99459.63
2023-01-08T05:07:43.833Z,99468.28
2023-01-08T05:10:11.579Z,99469.50
2023-01-08T05:12:39.227Z,99462.28
2023-01-08T05:15:07.790Z,99454.88
2023-01-08T05:17:36.891Z,99453.69
2023-01-08T05:20:04.729Z,99444.16
2023-01-08T05:22:32.465Z,99452.44
2023-01-08T05:25:00.204Z,99457.25
2023-01-08T05:27:29.415Z,99437.94
2023-01-08T05:29:57.152Z,99430.13
2023-01-08T05:32:24.848Z,99426.91
2023-01-08T05:34:53.877Z,99431.13
2023-01-08T05:37:21.674Z,99430.06
2023-01-08T05:39:49.333Z,99431.72
2023-01-08T05:42:16.996Z,99430.53
2023-01-08T05:44:44.787Z,99436.63
2023-01-08T05:47:12.487Z,99439.38
2023-01-08T05:49:40.228Z,99427.97
2023-01-08T05:52:09.339Z,99436.53
2023-01-08T05:54:37.097Z,99442.34
2023-01-08T05:57:04.884Z,99429.19
2023-01-08T05:59:32.593Z,99424.16
2023-01-08T06:02:00.284Z,99442.97
2023-01-08T06:04:28.100Z,99413.91
2023-01-08T06:06:55.848Z,99436.25
2023-01-08T06:09:24.907Z,99446.19
2023-01-08T06:11:53.102Z,99429.38
2023-01-08T06:14:20.889Z,99408.03
2023-01-08T06:16:48.579Z,99434.44
2023-01-08T06:19:18.886Z,99431.56
2023-01-08T06:21:46.668Z,99431.56
2023-01-08T06:24:14.288Z,99436.38
2023-01-08T06:26:43.337Z,99437.13
2023-01-08T06:29:11.017Z,99431.13
2023-01-08T06:31:38.776Z,99419.03
2023-01-08T06:34:06.500Z,99398.59
2023-01-08T06:36:34.165Z,99403.78
2023-01-08T06:39:01.890Z,99424.75
2023-01-08T06:41:29.575Z,99409.69
2023-01-08T06:43:58.594Z,99417.94
2023-01-08T06:46:26.320Z,99423.34
2023-01-08T06:48:53.986Z,99416.69
2023-01-08T06:51:21.617Z,99421.50
2023-01-08T06:53:49.579Z,99424.84
2023-01-08T06:56:17.332Z,99436.38
2023-01-08T06:58:45.076Z,99445.72
2023-01-08T07:01:16.467Z,99432.13
2023-01-08T07:03:44.781Z,99432.50
2023-01-08T07:06:15.997Z,99444.41
2023-01-08T07:08:43.713Z,99436.06
2023-01-08T07:11:11.417Z,99447.22
2023-01-08T07:13:39.086Z,99454.09
2023-01-08T07:16:08.248Z,99455.44
2023-01-08T07:18:37.813Z,99450.56
2023-01-08T07:21:06.933Z,99452.69
2023-01-08T07:23:34.710Z,99467.31
2023-01-08T07:26:02.660Z,99446.03
2023-01-08T07:28:30.754Z,99449.81
2023-01-08T07:30:58.694Z,99448.56
2023-01-08T07:33:26.425Z,99433.84
2023-01-08T07:35:56.118Z,99447.31
2023-01-08T07:38:24.446Z,99445.47
2023-01-08T07:40:52.167Z,99434.84
2023-01-08T07:43:19.967Z,99434.59
2023-01-08T07:45:47.700Z,99432.53
2023-01-08T07:48:16.495Z,99418.75
2023-01-08T07:50:44.577Z,99434.13
2023-01-08T07:53:17.092Z,99439.72
2023-01-08T07:55:44.926Z,99431.75
2023-01-08T07:58:13.979Z,99421.94
2023-01-08T08:00:41.999Z,99428.63
2023-01-08T08:03:11.455Z,99419.06
2023-01-08T08:05:39.976Z,99430.38
2023-01-08T08:08:11.338Z,99428.69
2023-01-08T08:10:41.333Z,99438.38
2023-01-08T08:13:09.439Z,99439.84
2023-01-08T08:15:37.948Z,99444.66
2023-01-08T08:18:06.052Z,99435.41
2023-01-08T08:20:33.859Z,99438.38
2023-01-08T08:23:02.569Z,99426.00
2023-01-08T08:25:30.226Z,99430.81
2023-01-08T08:27:59.606Z,99427.84
2023-01-08T08:30:27.888Z,99419.53
2023-01-08T08:32:56.471Z,99403.31
2023-01-08T08:35:24.143Z,99404.06
2023-01-08T08:37:51.850Z,99399.56
2023-01-08T08:40:19.710Z,99401.94
2023-01-08T08:42:47.580Z,99401.22
2023-01-08T08:45:16.703Z,99405.75
2023-01-08T08:47:44.437Z,99396.25
2023-01-08T08:50:12.124Z,99396.00
2023-01-08T08:52:39.907Z,99396.16
2023-01-08T08:55:08.065Z,99389.50
2023-01-08T08:57:35.727Z,99393.78
2023-01-08T09:00:03.505Z,99406.09
2023-01-08T09:02:32.821Z,99406.31
2023-01-08T09:05:00.577Z,99405.88
2023-01-08T09:07:28.298Z,99394.56
2023-01-08T09:09:55.985Z,99402.50
2023-01-08T09:12:23.662Z,99413.25
2023-01-08T09:14:51.815Z,99396.50
2023-01-08T09:17:21.397Z,99411.28
2023-01-08T09:19:50.452Z,99414.75
2023-01-08T09:22:18.187Z,99416.09
2023-01-08T09:24:45.899Z,99400.31
2023-01-08T09:27:13.763Z,99428.97
2023-01-08T09:29:41.811Z,99400.94
2023-01-08T09:32:10.490Z,99404.63
2023-01-08T09:34:38.314Z,99389.09
2023-01-08T09:37:07.661Z,99416.41
2023-01-08T09:39:35.423Z,99392.44
2023-01-08T09:42:04.950Z,99401.59
2023-01-08T09:44:37.206Z,99405.69
2023-01-08T09:47:05.981Z,99392.31
2023-01-08T09:49:38.948Z,99386.50
2023-01-08T09:52:09.911Z,99393.88
2023-01-08T09:54:37.648Z,99401.78
2023-01-08T09:57:05.569Z,99396.13
2023-01-08T09:59:33.277Z,99388.41
2023-01-08T10:02:01.129Z,99391.63
2023-01-08T10:04:31.142Z,99405.31
2023-01-08T10:07:01.947Z,99400.81
2023-01-08T10:09:32.463Z,99383.75
2023-01-08T10:12:02.450Z,99400.28
2023-01-08T10:14:32.182Z,99400.34
2023-01-08T10:17:02.737Z,99394.84
2023-01-08T10:19:30.715Z,99412.63
2023-01-08T10:21:58.722Z,99384.31
2023-01-08T10:24:35.214Z,99387.47
2023-01-08T10:27:10.226Z,99390.56
2023-01-08T10:29:39.821Z,99384.69
2023-01-08T10:32:10.770Z,99376.75
2023-01-08T10:34:44.902Z,99373.00
2023-01-08T10:37:18.825Z,99371.53
2023-01-08T10:39:48.652Z,99366.69
2023-01-08T10:42:18.816Z,99377.97
2023-01-08T10:44:56.151Z,99383.69
2023-01-08T10:47:25.118Z,99382.59
2023-01-08T10:49:52.830Z,99382.22
2023-01-08T10:52:26.900Z,99365.38
2023-01-08T10:54:56.500Z,99371.19
2023-01-08T10:57:26.676Z,99367.59
2023-01-08T10:59:54.488Z,99372.38
2023-01-08T11:02:33.138Z,99362.31
2023-01-08T11:05:01.567Z,99368.31
2023-01-08T11:07:29.670Z,99356.81
2023-01-08T11:09:58.773Z,99370.38
2023-01-08T11:12:35.747Z,99373.59
2023-01-08T11:15:04.983Z,99364.19
2023-01-08T11:17:33.604Z,99352.16
2023-01-08T11:20:17.865Z,99361.13
2023-01-08T11:22:45.572Z,99356.34
2023-01-08T11:25:16.279Z,99347.47
2023-01-08T11:27:45.748Z,99351.50
2023-01-08T11:30:15.396Z,99357.06
2023-01-08T11:32:47.230Z,99340.84
2023-01-08T11:35:19.111Z,99342.19
2023-01-08T11:37:51.411Z,99323.00
2023-01-08T11:40:30.026Z,99314.97
2023-01-08T11:43:06.377Z,99323.88
2023-01-08T11:45:43.733Z,99304.91
2023-01-08T11:48:24.381Z,99299.06
2023-01-08T11:51:04.404Z,99292.81
2023-01-08T11:53:37.258Z,99298.81
2023-01-08T11:56:15.666Z,99299.31
2023-01-08T11:58:52.787Z,99292.47
2023-01-08T12:01:41.866Z,99271.50
2023-01-08T12:04:37.473Z,99276.56
2023-01-08T12:07:11.360Z,99286.09
2023-01-08T12:09:42.451Z,99270.09
2023-01-08T12:12:20.436Z,99278.31
2023-01-08T12:14:56.692Z,99281.66
2023-01-08T12:17:41.223Z,99274.47
2023-01-08T12:20:19.107Z,99274.47
2023-01-08T12:22:50.977Z,99270.41
2023-01-08T12:25:38.926Z,99258.56
2023-01-08T12:28:16.104Z,99254.34
2023-01-08T12:30:51.870Z,99258.56
2023-01-08T12:33:24.972Z,99251.56
2023-01-08T12:35:55.933Z,99254.47
2023-01-08T12:38:28.999Z,99252.44
2023-01-08T12:40:59.490Z,99252.88
2023-01-08T12:43:32.025Z,99246.66
2023-01-08T12:46:00.937Z,99232.19
2023-01-08T12:48:31.305Z,99240.38
2023-01-08T12:51:03.196Z,99240.84
2023-01-08T12:53:45.021Z,99226.91
2023-01-08T12:56:15.630Z,99230.22
2023-01-08T12:59:12.930Z,99221.16
2023-01-08T13:01:46.671Z,99218.13
2023-01-08T13:04:14.678Z,99227.69
2023-01-08T13:06:51.460Z,99225.06
2023-01-08T13:09:23.555Z,99207.47
2023-01-08T13:11:53.956Z,99214.69
2023-01-08T13:14:24.771Z,99214.75
2023-01-08T13:17:03.818Z,99214.91
2023-01-08T13:19:34.959Z,99203.97
2023-01-08T13:22:03.349Z,99193.94
2023-01-08T13:24:32.997Z,99187.81
2023-01-08T13:27:12.166Z,99175.25
2023-01-08T13:29:42.788Z,99185.53
2023-01-08T13:32:30.730Z,99171.78
2023-01-08T13:35:04.090Z,99160.91
2023-01-08T13:37:31.734Z,99150.69
2023-01-08T13:39:59.464Z,99155.00
2023-01-08T13:42:28.787Z,99155.88
2023-01-08T13:45:02.157Z,99158.28
2023-01-08T13:47:32.742Z,99152.53
2023-01-08T13:50:03.629Z,99151.00
2023-01-08T13:52:34.376Z,99149.59
2023-01-08T13:55:04.864Z,99153.19
2023-01-08T13:57:38.008Z,99149.69
2023-01-08T14:00:10.250Z,99123.06
2023-01-08T14:02:50.092Z,99133.63
2023-01-08T14:05:23.371Z,99145.91
2023-01-08T14:07:51.165Z,99160.78
2023-01-08T14:10:19.428Z,99150.22
2023-01-08T14:12:47.362Z,99130.41
2023-01-08T14:15:23.069Z,99135.69
2023-01-08T14:17:50.984Z,99117.06
2023-01-08T14:20:25.852Z,99142.81
2023-01-08T14:22:53.652Z,99133.75
2023-01-08T14:25:21.535Z,99134.84
2023-01-08T14:27:57.043Z,99116.16
2023-01-08T14:30:26.316Z,99125.44
2023-01-08T14:32:55.348Z,99125.78
2023-01-08T14:35:29.156Z,99122.09
2023-01-08T14:37:57.169Z,99120.38
2023-01-08T14:40:30.475Z,99120.59
2023-01-08T14:42:59.743Z,99123.72
2023-01-08T14:45:31.594Z,99131.69
2023-01-08T14:48:01.464Z,99131.75
2023-01-08T14:50:31.042Z,99126.53
2023-01-08T14:53:00.214Z,99128.16
2023-01-08T14:55:28.593Z,99120.63
2023-01-08T14:57:57.223Z,99125.78
2023-01-08T15:00:27.587Z,99110.44
2023-01-08T15:02:56.874Z,99113.81
2023-01-08T15:05:28.817Z,99103.78
2023-01-08T15:08:00.607Z,99107.53
2023-01-08T15:10:40.136Z,99100.53
2023-01-08T15:13:08.552Z,99123.88
2023-01-08T15:15:39.120Z,99116.75
2023-01-08T15:18:10.245Z,99110.78
2023-01-08T15:20:38.013Z,99120.69
2023-01-08T15:23:05.719Z,99103.09
2023-01-08T15:25:33.413Z,99104.94
2023-01-08T15:28:02.421Z,99103.84
2023-01-08T15:30:34.803Z,99098.16
2023-01-08T15:33:18.997Z,99105.53
2023-01-08T15:35:46.757Z,99085.09
2023-01-08T15:38:14.540Z,99076.41
2023-01-08T15:40:42.294Z,99086.19
2023-01-08T15:43:11.592Z,99079.25
2023-01-08T15:45:40.889Z,99084.28
2023-01-08T15:48:11.582Z,99081.41
2023-01-08T15:50:40.871Z,99080.66
2023-01-08T15:53:13.011Z,99091.72
2023-01-08T15:55:43.431Z,99074.56
2023-01-08T15:58:12.817Z,99070.84
2023-01-08T16:00:40.783Z,99078.03
2023-01-08T16:03:09.892Z,99065.81
2023-01-08T16:05:37.755Z,99067.28
2023-01-08T16:08:06.012Z,99062.22
2023-01-08T16:10:34.128Z,99073.00
2023-01-08T16:13:02.366Z,99055.28
2023-01-08T16:15:30.971Z,99064.66
2023-01-08T16:17:59.389Z,99064.13
2023-01-08T16:20:28.485Z,99057.91
2023-01-08T16:22:57.206Z,99059.25
2023-01-08T16:25:25.301Z,99054.19
2023-01-08T16:27:53.147Z,99064.38
2023-01-08T16:30:20.898Z,99062.94
2023-01-08T16:32:52.208Z,99054.09
2023-01-08T16:35:20.424Z,99044.50
2023-01-08T16:37:49.566Z,99054.53
2023-01-08T16:40:17.529Z,99063.06
2023-01-08T16:42:45.190Z,99059.34
2023-01-08T16:45:12.908Z,99056.22
2023-01-08T16:47:40.921Z,99050.50
2023-01-08T16:50:10.938Z,99047.13
2023-01-08T16:52:38.896Z,99044.28
2023-01-08T16:55:10.803Z,99050.09
2023-01-08T16:57:38.507Z,99047.75
2023-01-08T17:00:08.315Z,99040.31
2023-01-08T17:02:36.033Z,99038.41
2023-01-08T17:05:03.769Z,99044.88
2023-01-08T17:07:31.487Z,99036.84
2023-01-08T17:09:59.159Z,99026.34
2023-01-08T17:12:29.708Z,99026.59
2023-01-08T17:14:57.384Z,99030.66
2023-01-08T17:17:24.994Z,99017.84
2023-01-08T17:19:52.655Z,99019.16
2023-01-08T17:22:20.360Z,99020.06
2023-01-08T17:24:48.376Z,99017.22
2023-01-08T17:27:16.048Z,99014.59
2023-01-08T17:29:45.135Z,99022.25
2023-01-08T17:32:14.203Z,99017.94
2023-01-08T17:34:41.899Z,99015.84
2023-01-08T17:37:09.631Z,99016.66
2023-01-08T17:39:37.354Z,99024.00
2023-01-08T17:42:22.886Z,99007.34
2023-01-08T17:44:51.964Z,99011.41
2023-01-08T17:47:20.954Z,99013.31
2023-01-08T17:49:50.336Z,99022.63
2023-01-08T17:52:18.112Z,99009.66
2023-01-08T17:54:45.759Z,99009.88
2023-01-08T17:57:13.469Z,98987.25
2023-01-08T17:59:41.200Z,98993.75
2023-01-08T18:02:13.406Z,98996.13
2023-01-08T18:04:42.320Z,98993.66
2023-01-08T18:07:10.103Z,98995.88
2023-01-08T18:09:37.803Z,98992.38
2023-01-08T18:12:05.923Z,99001.16
2023-01-08T18:14:34.971Z,98996.59
2023-01-08T18:17:02.657Z,98991.84
2023-01-08T18:19:31.850Z,98983.44
2023-01-08T18:21:59.666Z,98990.91
2023-01-08T18:24:27.366Z,98988.03
2023-01-08T18:26:55.054Z,98990.41
2023-01-08T18:29:22.739Z,98983.09
2023-01-08T18:31:50.482Z,98979.31
2023-01-08T18:34:18.229Z,98977.50
2023-01-08T18:36:47.416Z,98965.97
2023-01-08T18:39:15.223Z,98962.84
2023-01-08T18:42:00.704Z,98954.91
2023-01-08T18:44:28.482Z,98955.59
2023-01-08T18:46:56.133Z,98952.50
2023-01-08T18:49:24.507Z,98947.59
2023-01-08T18:51:53.575Z,98943.31
2023-01-08T18:54:21.217Z,98941.53
2023-01-08T18:56:51.021Z,98939.25
2023-01-08T18:59:18.762Z,98926.09
2023-01-08T19:01:46.455Z,98930.06
2023-01-08T19:04:17.995Z,98927.81
2023-01-08T19:06:45.694Z,98929.47
2023-01-08T19:09:15.626Z,98915.13
2023-01-08T19:11:43.968Z,98937.13
2023-01-08T19:14:13.051Z,98910.00
2023-01-08T19:16:41.377Z,98916.94
2023-01-08T19:19:09.074Z,98898.88
2023-01-08T19:21:36.763Z,98905.31
2023-01-08T19:24:04.720Z,98898.66
2023-01-08T19:26:33.761Z,98904.88
2023-01-08T19:29:02.951Z,98892.28
2023-01-08T19:31:31.893Z,98905.34
2023-01-08T19:33:59.647Z,98900.56
2023-01-08T19:36:27.769Z,98897.78
2023-01-08T19:38:55.805Z,98901.03
2023-01-08T19:41:41.171Z,98899.03
2023-01-08T19:44:10.268Z,98889.81
2023-01-08T19:46:38.271Z,98890.53
2023-01-08T19:49:06.270Z,98885.16
2023-01-08T19:51:34.789Z,98880.50
2023-01-08T19:54:02.484Z,98863.06
2023-01-08T19:56:30.704Z,98870.00
2023-01-08T19:58:58.701Z,98864.38
2023-01-08T20:01:28.725Z,98859.72
2023-01-08T20:03:56.873Z,98851.59
2023-01-08T20:06:26.423Z,98843.59
2023-01-08T20:08:55.615Z,98853.00
2023-01-08T20:11:24.234Z,98848.25
2023-01-08T20:13:52.878Z,98839.53
2023-01-08T20:16:21.819Z,98850.38
2023-01-08T20:18:51.102Z,98848.72
2023-01-08T20:21:20.882Z,98845.50
2023-01-08T20:23:49.162Z,98840.84
2023-01-08T20:26:19.233Z,98840.34
2023-01-08T20:28:49.234Z,98839.88
2023-01-08T20:31:19.175Z,98844.66
2023-01-08T20:33:50.335Z,98838.44
2023-01-08T20:36:19.440Z,98830.81
2023-01-08T20:38:47.531Z,98819.34
2023-01-08T20:41:15.154Z,98817.31
2023-01-08T20:43:43.059Z,98822.91
2023-01-08T20:46:13.688Z,98818.25
2023-01-08T20:48:47.606Z,98832.69
2023-01-08T20:51:17.477Z,98815.16
2023-01-08T20:53:45.156Z,98806.38
2023-01-08T20:56:14.421Z,98805.94
2023-01-08T20:58:44.598Z,98798.31
2023-01-08T21:01:14.098Z,98800.44
2023-01-08T21:03:43.487Z,98797.69
2023-01-08T21:06:12.953Z,98795.19
2023-01-08T21:08:42.667Z,98779.47
2023-01-08T21:11:11.531Z,98774.22
2023-01-08T21:13:39.478Z,98768.59
2023-01-08T21:16:10.749Z,98773.47
2023-01-08T21:18:40.514Z,98767.03
2023-01-08T21:21:08.705Z,98755.84
2023-01-08T21:23:36.335Z,98748.56
2023-01-08T21:26:07.013Z,98750.81
2023-01-08T21:28:35.523Z,98740.91
2023-01-08T21:31:05.622Z,98721.69
2023-01-08T21:33:33.467Z,98726.91
2023-01-08T21:36:04.109Z,98731.81
2023-01-08T21:38:32.072Z,98727.91
2023-01-08T21:41:00.538Z,98724.16
2023-01-08T21:43:47.833Z,98716.78
2023-01-08T21:46:16.385Z,98730.34
2023-01-08T21:48:44.714Z,98735.09
2023-01-08T21:51:26.241Z,98719.44
2023-01-08T21:53:53.980Z,98706.84
2023-01-08T21:56:22.030Z,98708.25
2023-01-08T21:58:51.054Z,98699.44
2023-01-08T22:01:18.984Z,98702.00
2023-01-08T22:03:46.774Z,98700.41
2023-01-08T22:06:14.484Z,98694.84
2023-01-08T22:08:42.218Z,98700.22
2023-01-08T22:11:10.887Z,98687.22
2023-01-08T22:13:39.244Z,98686.41
2023-01-08T22:16:10.865Z,98688.13
2023-01-08T22:18:39.286Z,98690.97
2023-01-08T22:21:08.722Z,98692.25
2023-01-08T22:23:37.348Z,98676.78
2023-01-08T22:26:05.578Z,98695.00
2023-01-08T22:28:33.721Z,98695.50
2023-01-08T22:31:05.679Z,98703.03
2023-01-08T22:33:34.751Z,98690.94
2023-01-08T22:36:03.250Z,98696.19
2023-01-08T22:38:30.884Z,98688.06
2023-01-08T22:40:58.714Z,98681.97
2023-01-08T22:43:26.584Z,98684.97
2023-01-08T22:45:54.544Z,98690.00
2023-01-08T22:48:22.561Z,98652.59
2023-01-08T22:50:51.833Z,98644.50
2023-01-08T22:53:19.911Z,98661.16
2023-01-08T22:55:49.137Z,98653.75
2023-01-08T22:58:17.798Z,98640.75
2023-01-08T23:00:45.666Z,98649.19
2023-01-08T23:03:13.753Z,98655.94
2023-01-08T23:05:41.575Z,98652.03
2023-01-08T23:08:11.073Z,98646.34
2023-01-08T23:10:38.979Z,98659.81
2023-01-08T23:13:06.688Z,98648.56
2023-01-08T23:15:34.476Z,98638.06
2023-01-08T23:18:02.158Z,98649.28
2023-01-08T23:20:29.894Z,98650.28
2023-01-08T23:22:57.620Z,98646.25
2023-01-08T23:25:27.818Z,98652.91
2023-01-08T23:27:55.474Z,98640.41
2023-01-08T23:30:23.180Z,98637.97
2023-01-08T23:32:50.821Z,98629.47
2023-01-08T23:35:18.955Z,98624.25
2023-01-08T23:37:46.699Z,98641.16
2023-01-08T23:40:14.859Z,98633.31
2023-01-08T23:42:43.935Z,98622.19
2023-01-08T23:45:12.300Z,98623.13
2023-01-08T23:47:39.973Z,98616.13
2023-01-08T23:50:09.207Z,98619.44
2023-01-08T23:52:36.899Z,98617.09
2023-01-08T23:55:05.034Z,98624.88
2023-01-08T23:57:32.669Z,98612.31
